sensor_id;sensor_type;location;lat;lon;timestamp;temperature;humidity
22071;DHT22;11200;51.488;6.668;2023-02-01T04:47:46;4.90;99.90
22071;DHT22;11200;51.488;6.668;2023-02-01T04:50:13;6.80;99.90
22071;DHT22;11200;51.488;6.668;2023-02-01T04:52:39;5.50;99.90
22071;DHT22;11200;51.488;6.668;2023-02-01T04:55:04;7.20;99.90
22071;DHT22;11200;51.488;6.668;2023-02-01T04:57:52;5.30;99.90
22071;DHT22;11200;51.488;6.668;2023-02-01T05:00:20;5.60;99.90
22071;DHT22;11200;51.488;6.668;2023-02-01T05:02:58;5.20;99.90
22071;DHT22;11200;51.488;6.668;2023-02-01T05:09:29;4.60;99.90
22071;DHT22;11200;51.488;6.668;2023-02-01T05:11:58;5.50;99.90
22071;DHT22;11200;51.488;6.668;2023-02-01T05:14:42;5.50;99.90
22071;DHT22;11200;51.488;6.668;2023-02-01T05:17:08;4.90;99.90
22071;DHT22;11200;51.488;6.668;2023-02-01T05:19:34;6.20;99.90
22071;DHT22;11200;51.488;6.668;2023-02-01T05:22:00;5.00;99.90
22071;DHT22;11200;51.488;6.668;2023-02-01T05:24:29;5.20;99.90
22071;DHT22;11200;51.488;6.668;2023-02-01T05:26:57;5.60;99.90
22071;DHT22;11200;51.488;6.668;2023-02-01T05:29:26;5.00;99.90
22071;DHT22;11200;51.488;6.668;2023-02-01T05:31:52;4.90;99.90
22071;DHT22;11200;51.488;6.668;2023-02-01T05:34:18;4.90;99.90
22071;DHT22;11200;51.488;6.668;2023-02-01T05:36:43;5.70;99.90
22071;DHT22;11200;51.488;6.668;2023-02-01T05:39:09;5.10;99.90
22071;DHT22;11200;51.488;6.668;2023-02-01T05:41:35;4.90;99.90
22071;DHT22;11200;51.488;6.668;2023-02-01T05:44:01;6.10;99.90
22071;DHT22;11200;51.488;6.668;2023-02-01T05:46:28;4.80;99.90
22071;DHT22;11200;51.488;6.668;2023-02-01T05:48:53;4.70;99.90
22071;DHT22;11200;51.488;6.668;2023-02-01T05:51:19;5.20;99.90
22071;DHT22;11200;51.488;6.668;2023-02-01T05:53:45;4.80;99.90
22071;DHT22;11200;51.488;6.668;2023-02-01T05:56:10;5.50;99.90
22071;DHT22;11200;51.488;6.668;2023-02-01T05:58:36;5.00;99.90
22071;DHT22;11200;51.488;6.668;2023-02-01T06:01:02;4.90;99.90
22071;DHT22;11200;51.488;6.668;2023-02-01T06:03:29;4.80;99.90
22071;DHT22;11200;51.488;6.668;2023-02-01T06:05:54;5.60;99.90
22071;DHT22;11200;51.488;6.668;2023-02-01T06:08:20;5.00;99.90
22071;DHT22;11200;51.488;6.668;2023-02-01T06:10:46;5.80;99.90
22071;DHT22;11200;51.488;6.668;2023-02-01T06:13:11;6.10;99.90
22071;DHT22;11200;51.488;6.668;2023-02-01T06:15:37;4.90;99.90
22071;DHT22;11200;51.488;6.668;2023-02-01T06:18:03;4.80;99.90
22071;DHT22;11200;51.488;6.668;2023-02-01T06:20:29;4.90;99.90
22071;DHT22;11200;51.488;6.668;2023-02-01T06:22:55;6.30;99.90
22071;DHT22;11200;51.488;6.668;2023-02-01T06:25:24;6.00;99.90
22071;DHT22;11200;51.488;6.668;2023-02-01T06:27:49;4.80;99.90
22071;DHT22;11200;51.488;6.668;2023-02-01T06:30:15;4.80;99.90
22071;DHT22;11200;51.488;6.668;2023-02-01T06:32:41;4.90;99.90
22071;DHT22;11200;51.488;6.668;2023-02-01T06:35:08;4.90;99.90
22071;DHT22;11200;51.488;6.668;2023-02-01T06:37:37;4.90;99.90
22071;DHT22;11200;51.488;6.668;2023-02-01T06:40:03;5.30;99.90
22071;DHT22;11200;51.488;6.668;2023-02-01T06:42:29;5.00;99.90
22071;DHT22;11200;51.488;6.668;2023-02-01T06:44:55;4.90;99.90
22071;DHT22;11200;51.488;6.668;2023-02-01T06:47:20;5.10;99.90
22071;DHT22;11200;51.488;6.668;2023-02-01T06:49:46;4.70;99.90
22071;DHT22;11200;51.488;6.668;2023-02-01T06:52:12;5.00;99.90
22071;DHT22;11200;51.488;6.668;2023-02-01T06:54:37;4.90;99.90
22071;DHT22;11200;51.488;6.668;2023-02-01T06:57:03;5.60;99.90
22071;DHT22;11200;51.488;6.668;2023-02-01T06:59:29;5.80;99.90
22071;DHT22;11200;51.488;6.668;2023-02-01T07:01:54;5.00;99.90
22071;DHT22;11200;51.488;6.668;2023-02-01T07:04:20;5.50;99.90
22071;DHT22;11200;51.488;6.668;2023-02-01T07:06:46;5.90;99.90
22071;DHT22;11200;51.488;6.668;2023-02-01T07:09:11;5.00;99.90
22071;DHT22;11200;51.488;6.668;2023-02-01T07:11:39;5.10;99.90
22071;DHT22;11200;51.488;6.668;2023-02-01T07:14:09;5.10;99.90
22071;DHT22;11200;51.488;6.668;2023-02-01T07:16:35;5.10;99.90
22071;DHT22;11200;51.488;6.668;2023-02-01T07:19:00;6.20;99.90
22071;DHT22;11200;51.488;6.668;2023-02-01T07:21:27;5.50;99.90
22071;DHT22;11200;51.488;6.668;2023-02-01T07:23:53;5.20;99.90
22071;DHT22;11200;51.488;6.668;2023-02-01T07:26:19;5.40;99.90
22071;DHT22;11200;51.488;6.668;2023-02-01T07:28:45;5.30;99.90
22071;DHT22;11200;51.488;6.668;2023-02-01T07:31:13;5.20;99.90
22071;DHT22;11200;51.488;6.668;2023-02-01T07:33:47;5.50;99.90
22071;DHT22;11200;51.488;6.668;2023-02-01T07:36:15;5.50;99.90
22071;DHT22;11200;51.488;6.668;2023-02-01T07:38:42;5.20;99.90
22071;DHT22;11200;51.488;6.668;2023-02-01T07:41:08;5.20;99.90
22071;DHT22;11200;51.488;6.668;2023-02-01T07:43:34;6.00;99.90
22071;DHT22;11200;51.488;6.668;2023-02-01T07:46:01;6.40;99.90
22071;DHT22;11200;51.488;6.668;2023-02-01T07:48:27;5.30;99.90
22071;DHT22;11200;51.488;6.668;2023-02-01T07:51:03;5.30;99.90
22071;DHT22;11200;51.488;6.668;2023-02-01T07:53:30;5.30;99.90
22071;DHT22;11200;51.488;6.668;2023-02-01T07:55:56;5.30;99.90
22071;DHT22;11200;51.488;6.668;2023-02-01T07:58:23;5.40;99.90
22071;DHT22;11200;51.488;6.668;2023-02-01T08:00:49;5.30;99.90
22071;DHT22;11200;51.488;6.668;2023-02-01T08:03:33;5.40;99.90
22071;DHT22;11200;51.488;6.668;2023-02-01T08:05:58;5.30;99.90
22071;DHT22;11200;51.488;6.668;2023-02-01T08:08:24;4.90;99.90
22071;DHT22;11200;51.488;6.668;2023-02-01T08:10:49;5.40;99.90
22071;DHT22;11200;51.488;6.668;2023-02-01T08:13:16;5.40;99.90
22071;DHT22;11200;51.488;6.668;2023-02-01T08:15:42;5.40;99.90
22071;DHT22;11200;51.488;6.668;2023-02-01T08:18:08;5.40;99.90
22071;DHT22;11200;51.488;6.668;2023-02-01T08:20:35;5.40;99.90
22071;DHT22;11200;51.488;6.668;2023-02-01T08:23:01;5.40;99.90
22071;DHT22;11200;51.488;6.668;2023-02-01T08:25:27;5.90;99.90
22071;DHT22;11200;51.488;6.668;2023-02-01T08:27:54;5.60;99.90
22071;DHT22;11200;51.488;6.668;2023-02-01T08:30:21;5.50;99.90
22071;DHT22;11200;51.488;6.668;2023-02-01T08:32:47;5.40;99.90
22071;DHT22;11200;51.488;6.668;2023-02-01T08:35:13;5.80;99.90
22071;DHT22;11200;51.488;6.668;2023-02-01T08:37:38;5.50;99.90
22071;DHT22;11200;51.488;6.668;2023-02-01T08:40:05;6.00;99.90
22071;DHT22;11200;51.488;6.668;2023-02-01T08:42:31;5.60;99.90
22071;DHT22;11200;51.488;6.668;2023-02-01T08:45:15;5.50;99.90
22071;DHT22;11200;51.488;6.668;2023-02-01T08:47:40;5.60;99.90
22071;DHT22;11200;51.488;6.668;2023-02-01T08:50:06;5.60;99.90
22071;DHT22;11200;51.488;6.668;2023-02-01T08:52:32;5.60;99.90
22071;DHT22;11200;51.488;6.668;2023-02-01T08:54:58;5.70;99.90
22071;DHT22;11200;51.488;6.668;2023-02-01T08:57:23;6.00;99.90
22071;DHT22;11200;51.488;6.668;2023-02-01T08:59:49;5.70;99.90
22071;DHT22;11200;51.488;6.668;2023-02-01T09:02:15;5.90;99.90
22071;DHT22;11200;51.488;6.668;2023-02-01T09:04:41;5.70;99.90
22071;DHT22;11200;51.488;6.668;2023-02-01T09:07:08;5.70;99.90
22071;DHT22;11200;51.488;6.668;2023-02-01T09:09:34;5.80;99.90
22071;DHT22;11200;51.488;6.668;2023-02-01T09:12:00;5.80;99.90
22071;DHT22;11200;51.488;6.668;2023-02-01T09:14:25;5.80;99.90
22071;DHT22;11200;51.488;6.668;2023-02-01T09:16:51;5.90;99.90
22071;DHT22;11200;51.488;6.668;2023-02-01T09:19:16;5.80;99.90
22071;DHT22;11200;51.488;6.668;2023-02-01T09:21:42;5.80;99.90
22071;DHT22;11200;51.488;6.668;2023-02-01T09:24:10;6.00;99.90
22071;DHT22;11200;51.488;6.668;2023-02-01T09:26:36;5.90;99.90
22071;DHT22;11200;51.488;6.668;2023-02-01T09:29:03;5.90;99.90
22071;DHT22;11200;51.488;6.668;2023-02-01T09:31:29;6.10;99.90
22071;DHT22;11200;51.488;6.668;2023-02-01T09:33:55;6.00;99.90
22071;DHT22;11200;51.488;6.668;2023-02-01T09:36:21;6.10;99.90
22071;DHT22;11200;51.488;6.668;2023-02-01T09:38:46;6.00;99.90
22071;DHT22;11200;51.488;6.668;2023-02-01T09:41:35;5.80;99.90
22071;DHT22;11200;51.488;6.668;2023-02-01T09:44:34;6.00;99.90
22071;DHT22;11200;51.488;6.668;2023-02-01T09:47:02;6.00;99.90
22071;DHT22;11200;51.488;6.668;2023-02-01T09:49:33;6.10;99.90
22071;DHT22;11200;51.488;6.668;2023-02-01T09:52:04;6.30;99.90
22071;DHT22;11200;51.488;6.668;2023-02-01T09:54:42;6.10;99.90
22071;DHT22;11200;51.488;6.668;2023-02-01T09:57:26;6.30;99.90
22071;DHT22;11200;51.488;6.668;2023-02-01T10:00:06;6.20;99.90
22071;DHT22;11200;51.488;6.668;2023-02-01T10:02:35;6.30;99.90
22071;DHT22;11200;51.488;6.668;2023-02-01T10:05:03;6.60;99.90
22071;DHT22;11200;51.488;6.668;2023-02-01T10:10:35;6.40;99.90
22071;DHT22;11200;51.488;6.668;2023-02-01T10:15:46;6.70;99.90
22071;DHT22;11200;51.488;6.668;2023-02-01T10:26:26;7.00;99.90
22071;DHT22;11200;51.488;6.668;2023-02-01T10:29:00;7.10;99.90
22071;DHT22;11200;51.488;6.668;2023-02-01T10:31:29;7.10;99.90
22071;DHT22;11200;51.488;6.668;2023-02-01T10:39:47;7.20;99.90
22071;DHT22;11200;51.488;6.668;2023-02-01T10:42:15;7.60;99.90
22071;DHT22;11200;51.488;6.668;2023-02-01T10:44:43;7.20;99.90
22071;DHT22;11200;51.488;6.668;2023-02-01T10:47:11;7.30;99.90
22071;DHT22;11200;51.488;6.668;2023-02-01T10:52:20;7.20;99.90
22071;DHT22;11200;51.488;6.668;2023-02-01T10:54:48;7.20;99.90
22071;DHT22;11200;51.488;6.668;2023-02-01T10:57:24;7.30;99.90
22071;DHT22;11200;51.488;6.668;2023-02-01T10:59:55;7.20;99.90
22071;DHT22;11200;51.488;6.668;2023-02-01T11:02:31;7.30;99.90
22071;DHT22;11200;51.488;6.668;2023-02-01T11:05:09;7.30;99.90
22071;DHT22;11200;51.488;6.668;2023-02-01T11:07:39;7.50;99.90
22071;DHT22;11200;51.488;6.668;2023-02-01T11:10:06;7.40;99.90
22071;DHT22;11200;51.488;6.668;2023-02-01T11:12:35;7.40;99.90
22071;DHT22;11200;51.488;6.668;2023-02-01T11:15:21;7.40;99.90
22071;DHT22;11200;51.488;6.668;2023-02-01T11:17:49;7.50;99.90
22071;DHT22;11200;51.488;6.668;2023-02-01T11:20:40;7.50;99.90
22071;DHT22;11200;51.488;6.668;2023-02-01T11:23:16;7.60;99.90
22071;DHT22;11200;51.488;6.668;2023-02-01T11:25:57;7.50;99.90
22071;DHT22;11200;51.488;6.668;2023-02-01T11:28:32;7.50;99.90
22071;DHT22;11200;51.488;6.668;2023-02-01T11:31:03;7.50;99.90
22071;DHT22;11200;51.488;6.668;2023-02-01T11:33:32;7.50;99.90
22071;DHT22;11200;51.488;6.668;2023-02-01T11:36:12;7.50;99.90
22071;DHT22;11200;51.488;6.668;2023-02-01T11:38:38;7.50;99.90
22071;DHT22;11200;51.488;6.668;2023-02-01T11:41:16;7.50;99.90
22071;DHT22;11200;51.488;6.668;2023-02-01T11:43:59;7.50;99.90
22071;DHT22;11200;51.488;6.668;2023-02-01T11:46:31;7.50;99.90
22071;DHT22;11200;51.488;6.668;2023-02-01T11:49:23;7.60;99.90
22071;DHT22;11200;51.488;6.668;2023-02-01T11:52:25;7.10;99.90
22071;DHT22;11200;51.488;6.668;2023-02-01T11:55:10;7.50;99.90
22071;DHT22;11200;51.488;6.668;2023-02-01T12:13:46;7.40;99.90
22071;DHT22;11200;51.488;6.668;2023-02-01T12:19:06;7.40;99.90
22071;DHT22;11200;51.488;6.668;2023-02-01T12:21:58;7.40;99.90
22071;DHT22;11200;51.488;6.668;2023-02-01T12:33:21;7.30;99.90
22071;DHT22;11200;51.488;6.668;2023-02-01T12:41:37;7.30;99.90
22071;DHT22;11200;51.488;6.668;2023-02-01T12:45:25;7.30;99.90
22071;DHT22;11200;51.488;6.668;2023-02-01T12:49:53;7.50;99.90
22071;DHT22;11200;51.488;6.668;2023-02-01T12:52:40;7.40;99.90
22071;DHT22;11200;51.488;6.668;2023-02-01T12:55:13;7.40;99.90
22071;DHT22;11200;51.488;6.668;2023-02-01T12:57:48;7.40;99.90
22071;DHT22;11200;51.488;6.668;2023-02-01T13:02:56;7.40;99.90
22071;DHT22;11200;51.488;6.668;2023-02-01T13:06:13;7.40;99.90
22071;DHT22;11200;51.488;6.668;2023-02-01T13:08:25;7.40;99.90
22071;DHT22;11200;51.488;6.668;2023-02-01T13:11:04;7.40;99.90
22071;DHT22;11200;51.488;6.668;2023-02-01T13:19:26;7.50;99.90
22071;DHT22;11200;51.488;6.668;2023-02-01T13:22:00;7.50;99.90
22071;DHT22;11200;51.488;6.668;2023-02-01T13:24:32;7.50;99.90
22071;DHT22;11200;51.488;6.668;2023-02-01T13:27:00;7.50;99.90
22071;DHT22;11200;51.488;6.668;2023-02-01T13:29:28;7.50;99.90
22071;DHT22;11200;51.488;6.668;2023-02-01T13:43:12;7.50;99.90
22071;DHT22;11200;51.488;6.668;2023-02-01T13:45:45;7.60;99.90
22071;DHT22;11200;51.488;6.668;2023-02-01T13:48:29;7.60;99.90
22071;DHT22;11200;51.488;6.668;2023-02-01T13:50:58;7.60;99.90
22071;DHT22;11200;51.488;6.668;2023-02-01T13:55:58;7.60;99.90
22071;DHT22;11200;51.488;6.668;2023-02-01T14:04:00;7.60;99.90
22071;DHT22;11200;51.488;6.668;2023-02-01T14:19:29;7.70;99.90
22071;DHT22;11200;51.488;6.668;2023-02-01T14:24:50;7.70;99.90
22071;DHT22;11200;51.488;6.668;2023-02-01T14:27:22;7.70;99.90
22071;DHT22;11200;51.488;6.668;2023-02-01T14:29:55;7.70;99.90
22071;DHT22;11200;51.488;6.668;2023-02-01T14:32:31;7.70;99.90
22071;DHT22;11200;51.488;6.668;2023-02-01T14:35:00;7.70;99.90
22071;DHT22;11200;51.488;6.668;2023-02-01T14:37:30;7.70;99.90
22071;DHT22;11200;51.488;6.668;2023-02-01T14:40:04;7.70;99.90
22071;DHT22;11200;51.488;6.668;2023-02-01T14:55:49;7.80;99.90
22071;DHT22;11200;51.488;6.668;2023-02-01T15:00:57;7.80;99.90
22071;DHT22;11200;51.488;6.668;2023-02-01T15:06:30;7.80;99.90
22071;DHT22;11200;51.488;6.668;2023-02-01T15:09:09;8.20;99.90
22071;DHT22;11200;51.488;6.668;2023-02-01T15:12:17;7.80;99.90
22071;DHT22;11200;51.488;6.668;2023-02-01T15:14:48;7.80;99.90
22071;DHT22;11200;51.488;6.668;2023-02-01T15:17:29;8.00;99.90
22071;DHT22;11200;51.488;6.668;2023-02-01T15:20:02;7.80;99.90
22071;DHT22;11200;51.488;6.668;2023-02-01T15:22:30;7.80;99.90
22071;DHT22;11200;51.488;6.668;2023-02-01T15:24:58;7.80;99.90
22071;DHT22;11200;51.488;6.668;2023-02-01T15:27:25;7.80;99.90
22071;DHT22;11200;51.488;6.668;2023-02-01T15:29:51;7.80;99.90
22071;DHT22;11200;51.488;6.668;2023-02-01T15:32:31;7.80;99.90
22071;DHT22;11200;51.488;6.668;2023-02-01T15:34:58;7.80;99.90
22071;DHT22;11200;51.488;6.668;2023-02-01T15:37:26;7.80;99.90
22071;DHT22;11200;51.488;6.668;2023-02-01T15:42:51;8.40;99.90
22071;DHT22;11200;51.488;6.668;2023-02-01T15:45:19;7.80;99.90
22071;DHT22;11200;51.488;6.668;2023-02-01T15:47:49;7.80;99.90
22071;DHT22;11200;51.488;6.668;2023-02-01T15:50:16;7.90;99.90
22071;DHT22;11200;51.488;6.668;2023-02-01T15:52:47;7.80;99.90
22071;DHT22;11200;51.488;6.668;2023-02-01T15:55:43;7.70;99.90
22071;DHT22;11200;51.488;6.668;2023-02-01T15:58:19;7.70;99.90
22071;DHT22;11200;51.488;6.668;2023-02-01T16:00:48;7.70;99.90
22071;DHT22;11200;51.488;6.668;2023-02-01T16:03:42;7.70;99.90
22071;DHT22;11200;51.488;6.668;2023-02-01T16:08:55;7.80;99.90
22071;DHT22;11200;51.488;6.668;2023-02-01T16:14:12;7.70;99.90
22071;DHT22;11200;51.488;6.668;2023-02-01T16:16:37;7.70;99.90
22071;DHT22;11200;51.488;6.668;2023-02-01T16:19:03;7.70;99.90
22071;DHT22;11200;51.488;6.668;2023-02-01T16:21:28;7.70;99.90
22071;DHT22;11200;51.488;6.668;2023-02-01T16:23:54;7.90;99.90
22071;DHT22;11200;51.488;6.668;2023-02-01T16:26:20;7.70;99.90
22071;DHT22;11200;51.488;6.668;2023-02-01T16:28:46;7.70;99.90
22071;DHT22;11200;51.488;6.668;2023-02-01T16:31:14;7.70;99.90
22071;DHT22;11200;51.488;6.668;2023-02-01T16:33:50;7.70;99.90
22071;DHT22;11200;51.488;6.668;2023-02-01T16:36:17;7.60;99.90
22071;DHT22;11200;51.488;6.668;2023-02-01T16:38:43;7.60;99.90
22071;DHT22;11200;51.488;6.668;2023-02-01T16:41:13;7.60;99.90
22071;DHT22;11200;51.488;6.668;2023-02-01T16:43:39;7.60;99.90
22071;DHT22;11200;51.488;6.668;2023-02-01T16:46:05;7.60;99.90
22071;DHT22;11200;51.488;6.668;2023-02-01T16:48:36;8.50;99.90
22071;DHT22;11200;51.488;6.668;2023-02-01T16:51:11;7.60;99.90
22071;DHT22;11200;51.488;6.668;2023-02-01T16:53:37;7.60;99.90
22071;DHT22;11200;51.488;6.668;2023-02-01T16:56:13;7.60;99.90
22071;DHT22;11200;51.488;6.668;2023-02-01T16:58:40;7.60;99.90
22071;DHT22;11200;51.488;6.668;2023-02-01T17:01:09;7.60;99.90
22071;DHT22;11200;51.488;6.668;2023-02-01T17:03:35;7.70;99.90
22071;DHT22;11200;51.488;6.668;2023-02-01T17:06:01;7.50;99.90
22071;DHT22;11200;51.488;6.668;2023-02-01T17:08:35;7.80;99.90
22071;DHT22;11200;51.488;6.668;2023-02-01T17:11:02;7.60;99.90
22071;DHT22;11200;51.488;6.668;2023-02-01T17:13:29;7.60;99.90
22071;DHT22;11200;51.488;6.668;2023-02-01T17:16:09;7.50;99.90
22071;DHT22;11200;51.488;6.668;2023-02-01T17:18:38;7.60;99.90
22071;DHT22;11200;51.488;6.668;2023-02-01T17:21:05;7.60;99.90
22071;DHT22;11200;51.488;6.668;2023-02-01T17:23:31;7.80;99.90
22071;DHT22;11200;51.488;6.668;2023-02-01T17:25:57;7.50;99.90
22071;DHT22;11200;51.488;6.668;2023-02-01T17:28:24;7.50;99.90
22071;DHT22;11200;51.488;6.668;2023-02-01T17:30:49;7.50;99.90
22071;DHT22;11200;51.488;6.668;2023-02-01T17:33:28;7.50;99.90
22071;DHT22;11200;51.488;6.668;2023-02-01T17:35:55;7.50;99.90
22071;DHT22;11200;51.488;6.668;2023-02-01T17:38:23;7.50;99.90
22071;DHT22;11200;51.488;6.668;2023-02-01T17:40:49;7.50;99.90
22071;DHT22;11200;51.488;6.668;2023-02-01T17:43:17;7.50;99.90
22071;DHT22;11200;51.488;6.668;2023-02-01T17:45:54;7.80;99.90
22071;DHT22;11200;51.488;6.668;2023-02-01T17:48:20;7.50;99.90
22071;DHT22;11200;51.488;6.668;2023-02-01T17:50:48;7.50;99.90
22071;DHT22;11200;51.488;6.668;2023-02-01T17:53:24;7.50;99.90
22071;DHT22;11200;51.488;6.668;2023-02-01T17:55:50;7.50;99.90
22071;DHT22;11200;51.488;6.668;2023-02-01T17:58:17;7.50;99.90
22071;DHT22;11200;51.488;6.668;2023-02-01T18:00:44;7.50;99.90
22071;DHT22;11200;51.488;6.668;2023-02-01T18:03:25;7.40;99.90
22071;DHT22;11200;51.488;6.668;2023-02-01T18:05:53;7.50;99.90
22071;DHT22;11200;51.488;6.668;2023-02-01T18:08:21;7.50;99.90
22071;DHT22;11200;51.488;6.668;2023-02-01T18:10:48;7.50;99.90
22071;DHT22;11200;51.488;6.668;2023-02-01T18:13:14;7.50;99.90
22071;DHT22;11200;51.488;6.668;2023-02-01T18:15:40;7.50;99.90
22071;DHT22;11200;51.488;6.668;2023-02-01T18:18:06;7.60;99.90
22071;DHT22;11200;51.488;6.668;2023-02-01T18:20:32;7.70;99.90
22071;DHT22;11200;51.488;6.668;2023-02-01T18:22:59;7.40;99.90
22071;DHT22;11200;51.488;6.668;2023-02-01T18:25:27;8.20;99.90
22071;DHT22;11200;51.488;6.668;2023-02-01T18:27:55;7.50;99.90
22071;DHT22;11200;51.488;6.668;2023-02-01T18:30:23;7.40;99.90
22071;DHT22;11200;51.488;6.668;2023-02-01T18:32:49;7.40;99.90
22071;DHT22;11200;51.488;6.668;2023-02-01T18:35:20;7.40;99.90
22071;DHT22;11200;51.488;6.668;2023-02-01T18:37:47;7.40;99.90
22071;DHT22;11200;51.488;6.668;2023-02-01T18:40:21;7.40;99.90
22071;DHT22;11200;51.488;6.668;2023-02-01T18:42:47;7.40;99.90
22071;DHT22;11200;51.488;6.668;2023-02-01T18:47:48;7.40;99.90
22071;DHT22;11200;51.488;6.668;2023-02-01T18:50:15;7.40;99.90
22071;DHT22;11200;51.488;6.668;2023-02-01T18:52:42;7.40;99.90
22071;DHT22;11200;51.488;6.668;2023-02-01T18:55:08;7.50;99.90
22071;DHT22;11200;51.488;6.668;2023-02-01T18:57:34;7.40;99.90
22071;DHT22;11200;51.488;6.668;2023-02-01T18:59:59;7.40;99.90
22071;DHT22;11200;51.488;6.668;2023-02-01T19:02:26;7.40;99.90
22071;DHT22;11200;51.488;6.668;2023-02-01T19:04:52;7.40;99.90
22071;DHT22;11200;51.488;6.668;2023-02-01T19:07:17;7.40;99.90
22071;DHT22;11200;51.488;6.668;2023-02-01T19:09:43;7.40;99.90
22071;DHT22;11200;51.488;6.668;2023-02-01T19:12:09;7.40;99.90
22071;DHT22;11200;51.488;6.668;2023-02-01T19:14:34;7.40;99.90
22071;DHT22;11200;51.488;6.668;2023-02-01T19:17:00;7.50;99.90
22071;DHT22;11200;51.488;6.668;2023-02-01T19:19:26;7.40;99.90
22071;DHT22;11200;51.488;6.668;2023-02-01T19:21:51;7.40;99.90
22071;DHT22;11200;51.488;6.668;2023-02-01T19:24:17;7.50;99.90
22071;DHT22;11200;51.488;6.668;2023-02-01T19:26:43;7.40;99.90
22071;DHT22;11200;51.488;6.668;2023-02-01T19:29:09;7.40;99.90
22071;DHT22;11200;51.488;6.668;2023-02-01T19:31:35;7.40;99.90
22071;DHT22;11200;51.488;6.668;2023-02-01T19:34:01;7.40;99.90
22071;DHT22;11200;51.488;6.668;2023-02-01T19:36:27;7.40;99.90
22071;DHT22;11200;51.488;6.668;2023-02-01T19:38:53;7.40;99.90
22071;DHT22;11200;51.488;6.668;2023-02-01T19:41:19;7.40;99.90
22071;DHT22;11200;51.488;6.668;2023-02-01T19:43:45;7.40;99.90
22071;DHT22;11200;51.488;6.668;2023-02-01T19:46:11;7.40;99.90
22071;DHT22;11200;51.488;6.668;2023-02-01T19:48:37;7.70;99.90
22071;DHT22;11200;51.488;6.668;2023-02-01T19:51:03;7.40;99.90
22071;DHT22;11200;51.488;6.668;2023-02-01T19:53:29;7.40;99.90
22071;DHT22;11200;51.488;6.668;2023-02-01T19:55:56;7.40;99.90
22071;DHT22;11200;51.488;6.668;2023-02-01T19:58:23;7.40;99.90
22071;DHT22;11200;51.488;6.668;2023-02-01T20:00:52;7.40;99.90
22071;DHT22;11200;51.488;6.668;2023-02-01T20:03:19;7.40;99.90
22071;DHT22;11200;51.488;6.668;2023-02-01T20:05:44;7.40;99.90
22071;DHT22;11200;51.488;6.668;2023-02-01T20:08:10;7.60;99.90
22071;DHT22;11200;51.488;6.668;2023-02-01T20:10:35;7.40;99.90
22071;DHT22;11200;51.488;6.668;2023-02-01T20:13:06;7.40;99.90
22071;DHT22;11200;51.488;6.668;2023-02-01T20:15:32;7.40;99.90
22071;DHT22;11200;51.488;6.668;2023-02-01T20:17:57;7.40;99.90
22071;DHT22;11200;51.488;6.668;2023-02-01T20:20:23;7.20;99.90
22071;DHT22;11200;51.488;6.668;2023-02-01T20:22:48;7.20;99.90
22071;DHT22;11200;51.488;6.668;2023-02-01T20:25:14;7.20;99.90
22071;DHT22;11200;51.488;6.668;2023-02-01T20:27:40;7.10;99.90
22071;DHT22;11200;51.488;6.668;2023-02-01T20:30:06;7.10;99.90
22071;DHT22;11200;51.488;6.668;2023-02-01T20:32:31;7.00;99.90
22071;DHT22;11200;51.488;6.668;2023-02-01T20:34:57;6.90;99.90
22071;DHT22;11200;51.488;6.668;2023-02-01T20:37:23;6.90;99.90
22071;DHT22;11200;51.488;6.668;2023-02-01T20:39:48;6.90;99.90
22071;DHT22;11200;51.488;6.668;2023-02-01T20:42:14;6.80;99.90
22071;DHT22;11200;51.488;6.668;2023-02-01T20:44:39;6.80;99.90
22071;DHT22;11200;51.488;6.668;2023-02-01T20:47:05;6.80;99.90
22071;DHT22;11200;51.488;6.668;2023-02-01T20:49:30;6.70;99.90
22071;DHT22;11200;51.488;6.668;2023-02-01T20:51:56;6.70;99.90
22071;DHT22;11200;51.488;6.668;2023-02-01T20:54:23;6.60;99.90
22071;DHT22;11200;51.488;6.668;2023-02-01T20:56:49;6.60;99.90
22071;DHT22;11200;51.488;6.668;2023-02-01T20:59:15;6.50;99.90
22071;DHT22;11200;51.488;6.668;2023-02-01T21:01:41;6.60;99.90
22071;DHT22;11200;51.488;6.668;2023-02-01T21:04:22;6.80;99.90
22071;DHT22;11200;51.488;6.668;2023-02-01T21:06:48;6.50;99.90
22071;DHT22;11200;51.488;6.668;2023-02-01T21:09:14;6.50;99.90
22071;DHT22;11200;51.488;6.668;2023-02-01T21:11:40;6.40;99.90
22071;DHT22;11200;51.488;6.668;2023-02-01T21:14:06;6.50;99.90
22071;DHT22;11200;51.488;6.668;2023-02-01T21:16:32;6.40;99.90
22071;DHT22;11200;51.488;6.668;2023-02-01T21:18:57;6.40;99.90
22071;DHT22;11200;51.488;6.668;2023-02-01T21:21:23;6.40;99.90
22071;DHT22;11200;51.488;6.668;2023-02-01T21:23:48;6.40;99.90
22071;DHT22;11200;51.488;6.668;2023-02-01T21:26:17;6.30;99.90
22071;DHT22;11200;51.488;6.668;2023-02-01T21:28:43;6.30;99.90
22071;DHT22;11200;51.488;6.668;2023-02-01T21:31:09;6.40;99.90
22071;DHT22;11200;51.488;6.668;2023-02-01T21:33:35;6.40;99.90
22071;DHT22;11200;51.488;6.668;2023-02-01T21:36:01;6.40;99.90
22071;DHT22;11200;51.488;6.668;2023-02-01T21:38:27;6.50;99.90
22071;DHT22;11200;51.488;6.668;2023-02-01T21:40:53;6.50;99.90
22071;DHT22;11200;51.488;6.668;2023-02-01T21:43:37;6.50;99.90
22071;DHT22;11200;51.488;6.668;2023-02-01T21:46:03;6.50;99.90
22071;DHT22;11200;51.488;6.668;2023-02-01T21:48:29;6.60;99.90
22071;DHT22;11200;51.488;6.668;2023-02-01T21:50:54;6.60;99.90
22071;DHT22;11200;51.488;6.668;2023-02-01T21:53:22;6.60;99.90
22071;DHT22;11200;51.488;6.668;2023-02-01T21:55:47;6.60;99.90
22071;DHT22;11200;51.488;6.668;2023-02-01T21:58:13;6.70;99.90
22071;DHT22;11200;51.488;6.668;2023-02-01T22:00:39;6.70;99.90
22071;DHT22;11200;51.488;6.668;2023-02-01T22:03:04;6.70;99.90
22071;DHT22;11200;51.488;6.668;2023-02-01T22:05:30;6.70;99.90
22071;DHT22;11200;51.488;6.668;2023-02-01T22:07:56;6.80;99.90
22071;DHT22;11200;51.488;6.668;2023-02-01T22:10:21;6.90;99.90
22071;DHT22;11200;51.488;6.668;2023-02-01T22:12:47;6.80;99.90
22071;DHT22;11200;51.488;6.668;2023-02-01T22:15:12;7.40;99.90
22071;DHT22;11200;51.488;6.668;2023-02-01T22:17:38;6.80;99.90
22071;DHT22;11200;51.488;6.668;2023-02-01T22:20:04;6.80;99.90
22071;DHT22;11200;51.488;6.668;2023-02-01T22:22:30;6.80;99.90
22071;DHT22;11200;51.488;6.668;2023-02-01T22:24:55;6.90;99.90
22071;DHT22;11200;51.488;6.668;2023-02-01T22:27:21;6.90;99.90
22071;DHT22;11200;51.488;6.668;2023-02-01T22:29:47;6.90;99.90
22071;DHT22;11200;51.488;6.668;2023-02-01T22:32:12;6.90;99.90
22071;DHT22;11200;51.488;6.668;2023-02-01T22:34:38;6.90;99.90
22071;DHT22;11200;51.488;6.668;2023-02-01T22:37:04;7.60;99.90
22071;DHT22;11200;51.488;6.668;2023-02-01T22:39:29;6.90;99.90
22071;DHT22;11200;51.488;6.668;2023-02-01T22:41:55;7.50;99.90
22071;DHT22;11200;51.488;6.668;2023-02-01T22:44:20;7.00;99.90
22071;DHT22;11200;51.488;6.668;2023-02-01T22:46:48;7.00;99.90
22071;DHT22;11200;51.488;6.668;2023-02-01T22:49:14;7.10;99.90
22071;DHT22;11200;51.488;6.668;2023-02-01T22:51:40;7.00;99.90
22071;DHT22;11200;51.488;6.668;2023-02-01T22:54:17;7.00;99.90
22071;DHT22;11200;51.488;6.668;2023-02-01T22:56:45;7.00;99.90
22071;DHT22;11200;51.488;6.668;2023-02-01T22:59:12;7.10;99.90